Time;durP1;ratioP1;P1;durP2;ratioP2;P2;SDS_P1;SDS_P2;PMS_P1;PMS_P2;Temp;Humidity;BMP_temperature;BMP_pressure;BME280_temperature;BME280_humidity;BME280_pressure;Samples;Min_cycle;Max_cycle;Signal;HPM_P1;HPM_P2
2021/11/22 00:00:23;;;;;;;;;7.00;6.00;;;;;7.44;66.49;101403.03;4957635;28;44953;-96
2021/11/22 00:02:50;;;;;;;;;11.00;7.00;;;;;7.38;66.50;101396.56;4955823;28;44938;-96
2021/11/22 00:05:16;;;;;;;;;11.33;7.33;;;;;7.36;66.47;101390.34;4938949;28;48622;-96
2021/11/22 00:07:44;;;;;;;;;9.33;6.00;;;;;7.44;66.52;101411.78;4976800;28;45203;-96
2021/11/22 00:10:27;;;;;;;;;5.67;4.33;;;;;7.45;66.40;101429.25;4961262;28;44807;-96
2021/11/22 00:12:52;;;;;;;;;9.00;7.75;;;;;7.35;66.20;101412.03;4942424;28;44852;-96
2021/11/22 00:15:19;;;;;;;;;7.25;7.25;;;;;7.26;66.54;101406.16;4939039;28;47307;-96
2021/11/22 00:17:48;;;;;;;;;8.00;6.00;;;;;7.23;66.05;101403.34;4955896;28;45228;-96
2021/11/22 00:20:16;;;;;;;;;12.00;8.33;;;;;7.20;66.76;101409.25;4955449;28;45497;-96
2021/11/22 00:22:44;;;;;;;;;6.67;5.67;;;;;7.35;66.88;101422.47;4943957;28;44961;-96
2021/11/22 00:25:11;;;;;;;;;12.00;6.67;;;;;7.24;66.59;101397.34;4942617;28;45580;-96
2021/11/22 00:28:03;;;;;;;;;12.67;9.33;;;;;7.43;66.75;101432.53;4957604;28;45390;-96
2021/11/22 00:30:30;;;;;;;;;9.00;7.00;;;;;7.20;66.59;101400.50;4960412;28;44716;-96
2021/11/22 00:33:03;;;;;;;;;9.00;7.33;;;;;7.19;66.49;101406.56;4944382;28;44803;-96
2021/11/22 00:35:32;;;;;;;;;9.67;8.00;;;;;7.19;66.53;101414.38;4943737;28;46090;-96
2021/11/22 00:38:13;;;;;;;;;4.67;4.67;;;;;7.15;66.46;101401.09;4964019;28;44892;-96
2021/11/22 00:40:40;;;;;;;;;9.33;7.67;;;;;7.16;66.60;101409.84;4962098;28;45382;-96
2021/11/22 00:43:06;;;;;;;;;7.00;7.00;;;;;7.25;66.74;101420.00;5057864;23;45241;-96
2021/11/22 00:45:35;;;;;;;;;3.67;3.67;;;;;7.14;67.03;101412.34;4967944;28;45487;-96
2021/11/22 00:48:27;;;;;;;;;10.00;8.00;;;;;7.14;67.00;101414.03;5166973;23;44922;-96
2021/11/22 02:20:11;;;;;;;;;7.00;5.00;;;;;6.63;66.09;101472.25;5898130;23;46499;-96
2021/11/22 02:23:07;;;;;;;;;12.00;6.67;;;;;6.72;66.31;101498.13;4957994;28;45552;-96
2021/11/22 02:51:56;;;;;;;;;7.00;6.50;;;;;6.69;66.06;101524.00;5523670;23;46552;-96
2021/11/22 03:51:17;;;;;;;;;7.25;6.25;;;;;6.26;66.67;101546.06;5924424;23;45943;-96
2021/11/22 03:59:48;;;;;;;;;8.25;6.00;;;;;6.48;66.73;101586.81;5529474;23;46249;-96
2021/11/22 04:02:15;;;;;;;;;7.75;6.00;;;;;6.26;66.93;101559.13;4962308;28;44817;-96
2021/11/22 04:04:56;;;;;;;;;6.00;4.25;;;;;6.32;66.70;101559.56;4961090;28;44844;-96
2021/11/22 04:07:22;;;;;;;;;8.50;5.50;;;;;6.40;66.67;101578.41;4959739;28;45778;-96
2021/11/22 04:09:48;;;;;;;;;8.00;7.00;;;;;6.30;66.75;101568.06;4964911;28;45008;-96
2021/11/22 04:12:13;;;;;;;;;7.75;7.75;;;;;6.51;66.57;101604.38;4941782;28;45243;-96
2021/11/22 04:14:39;;;;;;;;;5.75;5.75;;;;;6.31;66.62;101570.81;4957857;28;45275;-96
2021/11/22 05:10:10;;;;;;;;;11.00;8.50;;;;;6.22;66.98;101636.19;5316279;23;45569;-96
2021/11/22 05:12:44;;;;;;;;;11.75;10.75;;;;;6.17;66.79;101629.69;4921251;28;44770;-96
2021/11/22 06:00:00;;;;;;;;;17.25;15.75;;;;;6.07;67.40;101677.59;5628366;23;45918;-96
2021/11/22 07:25:32;;;;;;;;;17.50;15.00;;;;;6.92;66.38;101858.88;5748147;23;1704853;-85
2021/11/22 07:27:57;;;;;;;;;18.50;18.50;;;;;6.95;66.27;101859.13;4949664;28;45574;-84
2021/11/22 07:30:23;;;;;;;;;13.00;13.00;;;;;6.99;66.08;101866.41;4954500;28;45381;-88
2021/11/22 07:32:53;;;;;;;;;17.75;14.00;;;;;7.10;66.09;101872.47;4951434;28;45486;-85
2021/11/22 07:35:23;;;;;;;;;14.00;14.00;;;;;7.18;66.06;101877.38;4953695;28;46903;-84
2021/11/22 07:37:49;;;;;;;;;15.75;13.75;;;;;7.20;65.84;101881.00;4950943;28;46536;-86
2021/11/22 07:40:20;;;;;;;;;17.75;13.50;;;;;7.21;65.40;101881.13;4934820;28;45550;-87
2021/11/22 07:42:45;;;;;;;;;14.75;14.50;;;;;7.21;65.79;101881.13;4948169;28;45450;-85
2021/11/22 07:45:11;;;;;;;;;13.50;13.50;;;;;7.26;65.60;101894.56;4951717;28;45449;-86
2021/11/22 07:47:36;;;;;;;;;12.00;10.00;;;;;7.30;65.22;101909.66;4950241;28;49897;-86
2021/11/22 07:50:02;;;;;;;;;14.25;14.25;;;;;7.33;65.49;101911.59;4931988;28;45491;-85
2021/11/22 07:52:27;;;;;;;;;18.25;14.25;;;;;7.35;65.47;101907.41;4949485;28;45401;-85
2021/11/22 07:54:52;;;;;;;;;15.00;13.75;;;;;7.44;65.30;101913.34;4954051;28;49158;-85
2021/11/22 07:57:18;;;;;;;;;11.33;11.33;;;;;7.51;65.06;101926.88;4961425;28;53728;-85
2021/11/22 07:59:43;;;;;;;;;17.25;12.50;;;;;7.52;64.68;101924.41;4959176;28;45435;-85
2021/11/22 08:02:08;;;;;;;;;15.00;12.00;;;;;7.54;64.79;101928.03;4940581;28;45431;-85
2021/11/22 08:04:34;;;;;;;;;13.25;12.00;;;;;7.62;64.55;101927.69;4953246;28;45463;-85
2021/11/22 08:07:09;;;;;;;;;16.00;14.50;;;;;7.68;64.45;101936.91;4949893;28;45303;-85
2021/11/22 08:09:41;;;;;;;;;14.33;12.00;;;;;7.67;64.38;101931.56;4952513;28;45324;-85
2021/11/22 08:14:36;;;;;;;;;13.00;12.25;;;;;7.73;64.41;101933.75;4951584;28;45521;-85
2021/11/22 08:17:04;;;;;;;;;16.33;13.33;;;;;7.77;64.31;101935.81;4950027;28;45370;-85
2021/11/22 08:19:29;;;;;;;;;13.25;12.00;;;;;7.76;64.14;101924.44;4937478;28;45885;-85
2021/11/22 08:21:54;;;;;;;;;9.75;9.75;;;;;7.83;63.63;101933.66;4949536;28;46845;-84
2021/11/22 08:24:20;;;;;;;;;12.67;12.67;;;;;7.86;63.78;101941.72;4951683;28;45529;-85
2021/11/22 08:26:45;;;;;;;;;14.75;12.75;;;;;7.90;63.85;101941.16;4957325;28;45662;-86
2021/11/22 08:29:11;;;;;;;;;15.00;13.00;;;;;7.94;63.99;101937.97;4951660;28;52486;-85
2021/11/22 08:31:36;;;;;;;;;14.75;11.00;;;;;8.00;63.24;101942.78;4936941;28;45763;-85
2021/11/22 08:34:01;;;;;;;;;13.00;13.00;;;;;8.08;63.34;101951.19;4937130;28;45542;-85
2021/11/22 08:36:27;;;;;;;;;12.25;10.25;;;;;8.11;63.43;101942.66;4950488;28;45655;-85
2021/11/22 08:38:53;;;;;;;;;15.00;11.00;;;;;8.15;63.32;101945.63;4935986;28;45901;-85
2021/11/22 08:41:19;;;;;;;;;15.33;12.00;;;;;8.19;63.38;101959.84;4949701;28;45513;-85
2021/11/22 08:43:44;;;;;;;;;13.00;9.33;;;;;8.20;62.82;101942.44;4954925;28;45587;-89
2021/11/22 08:46:10;;;;;;;;;9.75;9.00;;;;;8.26;62.55;101958.59;4952910;28;45549;-87
2021/11/22 08:48:35;;;;;;;;;11.33;11.33;;;;;8.32;62.59;101966.91;4953976;28;45351;-84
2021/11/22 08:51:04;;;;;;;;;8.00;8.00;;;;;8.35;62.49;101963.63;4953767;28;45486;-85
2021/11/22 08:53:29;;;;;;;;;10.00;8.67;;;;;8.36;61.74;101966.34;4934887;28;47498;-85
2021/11/22 08:55:55;;;;;;;;;11.33;11.33;;;;;8.36;61.80;101954.94;4951049;28;45547;-85
2021/11/22 08:58:20;;;;;;;;;12.33;9.67;;;;;8.40;61.77;101966.56;4950661;28;45753;-84
2021/11/22 09:00:46;;;;;;;;;10.00;7.50;;;;;8.43;61.95;101972.91;4939842;28;45413;-84
2021/11/22 09:03:11;;;;;;;;;10.33;10.33;;;;;8.45;61.34;101976.56;4956612;28;46021;-84
2021/11/22 09:05:38;;;;;;;;;9.00;7.67;;;;;8.46;61.41;101982.72;4952373;28;46172;-85
2021/11/22 09:08:04;;;;;;;;;7.33;7.00;;;;;8.47;61.48;101975.00;4952389;28;45609;-85
2021/11/22 09:10:30;;;;;;;;;13.00;9.33;;;;;8.54;61.30;101991.13;4936067;28;45514;-85
2021/11/22 09:12:56;;;;;;;;;14.00;9.00;;;;;8.60;61.25;101979.47;4934538;28;45497;-85
2021/11/22 09:15:22;;;;;;;;;9.33;7.67;;;;;8.74;61.34;102000.47;4935947;28;46128;-86
2021/11/22 09:17:47;;;;;;;;;8.67;5.33;;;;;8.82;60.80;101998.41;4947933;28;45683;-86
2021/11/22 09:20:13;;;;;;;;;8.67;7.67;;;;;8.90;60.17;101998.97;4951007;28;45642;-84
2021/11/22 09:22:39;;;;;;;;;12.00;7.33;;;;;8.87;60.29;101993.50;4950270;28;45284;-86
2021/11/22 09:25:07;;;;;;;;;8.00;8.00;;;;;8.81;59.93;101999.25;4952036;28;45566;-89
2021/11/22 09:27:32;;;;;;;;;7.33;7.00;;;;;8.68;59.45;101997.44;4952398;28;45790;-94
2021/11/22 09:29:58;;;;;;;;;10.33;7.00;;;;;8.57;59.86;102000.13;4953684;28;45555;-89
2021/11/22 09:32:23;;;;;;;;;12.25;8.75;;;;;8.56;59.44;102015.69;4948514;28;45525;-90
2021/11/22 09:34:49;;;;;;;;;9.33;7.00;;;;;8.50;59.30;102003.09;4945008;28;45615;-89
2021/11/22 09:37:15;;;;;;;;;9.75;8.50;;;;;8.48;59.49;102016.03;4950903;28;45501;-89
2021/11/22 09:39:40;;;;;;;;;8.00;8.00;;;;;8.49;59.26;102019.56;4952606;28;45438;-89
2021/11/22 09:42:06;;;;;;;;;9.00;7.33;;;;;8.47;59.42;102029.03;4936459;28;45514;-91
2021/11/22 09:44:32;;;;;;;;;10.67;8.33;;;;;8.40;59.16;102019.78;4958024;28;45780;-91
2021/11/22 09:46:57;;;;;;;;;7.00;7.00;;;;;8.44;58.92;102032.31;4956595;28;45290;-89
2021/11/22 09:49:23;;;;;;;;;7.00;7.00;;;;;8.45;59.03;102036.75;4941892;28;45540;-88
2021/11/22 09:51:49;;;;;;;;;8.50;6.00;;;;;8.49;58.86;102030.03;4948775;28;45621;-88
2021/11/22 09:54:16;;;;;;;;;11.00;8.00;;;;;8.54;59.05;102038.22;4933673;28;47529;-89
2021/11/22 09:56:41;;;;;;;;;6.00;6.00;;;;;8.52;58.73;102040.75;4948057;28;45373;-90
2021/11/22 09:59:09;;;;;;;;;7.33;6.00;;;;;8.54;57.66;102040.84;4950332;28;45530;-89
2021/11/22 10:01:36;;;;;;;;;8.00;7.00;;;;;8.53;58.40;102052.13;4950840;28;45844;-89
2021/11/22 10:04:08;;;;;;;;;8.33;8.33;;;;;8.46;58.05;102049.03;4950960;28;45493;-88
2021/11/22 10:06:56;;;;;;;;;9.00;4.33;;;;;8.42;58.12;102033.00;4948180;28;45691;-89
2021/11/22 10:09:44;;;;;;;;;8.67;8.00;;;;;8.37;57.82;102053.59;4934415;28;45308;-86
2021/11/22 10:12:16;;;;;;;;;11.00;6.00;;;;;8.32;58.21;102061.09;4947337;28;45427;-89
2021/11/22 10:14:41;;;;;;;;;5.33;5.33;;;;;8.32;58.33;102053.25;4938509;28;48087;-89
2021/11/22 10:17:30;;;;;;;;;6.00;6.00;;;;;8.44;58.86;102057.56;4949152;28;45565;-89
2021/11/22 10:22:41;;;;;;;;;7.33;7.33;;;;;8.69;58.67;102059.44;4950233;28;45472;-90
2021/11/22 10:25:38;;;;;;;;;9.67;9.00;;;;;8.79;57.81;102064.56;4932154;28;47335;-90
2021/11/22 10:28:04;;;;;;;;;8.00;7.00;;;;;8.93;57.11;102059.44;4929751;28;45427;-87
2021/11/22 10:30:33;;;;;;;;;7.67;6.00;;;;;9.04;57.65;102058.53;4935241;28;45389;-90
2021/11/22 10:33:00;;;;;;;;;7.00;7.00;;;;;9.09;57.55;102058.84;4950378;28;45356;-90
2021/11/22 10:35:28;;;;;;;;;11.00;6.67;;;;;9.16;57.42;102066.38;4950264;28;45383;-89
2021/11/22 10:38:01;;;;;;;;;9.00;9.00;;;;;9.23;57.02;102064.16;4937167;28;46061;-90
2021/11/22 10:40:32;;;;;;;;;12.33;9.67;;;;;9.23;56.74;102077.28;4938889;28;45646;-89
2021/11/22 10:42:58;;;;;;;;;8.00;6.00;;;;;9.21;56.72;102071.00;4932515;28;45672;-89
2021/11/22 10:45:30;;;;;;;;;8.67;7.33;;;;;9.19;57.07;102072.63;4935240;28;47361;-90
2021/11/22 10:48:14;;;;;;;;;7.67;7.00;;;;;9.21;56.75;102063.16;4951729;28;45843;-91
2021/11/22 10:50:48;;;;;;;;;7.33;7.33;;;;;9.21;56.85;102066.69;4949260;28;45518;-91
2021/11/22 10:53:14;;;;;;;;;8.33;8.33;;;;;9.26;56.67;102074.88;4937421;28;49978;-88
2021/11/22 10:55:47;;;;;;;;;7.00;7.00;;;;;9.15;56.53;102081.94;4951110;28;46475;-89
2021/11/22 10:58:36;;;;;;;;;7.00;7.00;;;;;9.21;56.47;102095.50;4932918;28;48185;-91
2021/11/22 11:01:15;;;;;;;;;7.67;7.00;;;;;9.20;56.68;102085.81;4958101;28;45960;-92
2021/11/22 11:03:55;;;;;;;;;8.00;8.00;;;;;9.23;56.77;102087.75;4949308;28;45643;-90
2021/11/22 11:06:32;;;;;;;;;10.00;7.33;;;;;9.38;56.74;102081.00;4952762;28;45533;-91
2021/11/22 11:08:59;;;;;;;;;9.00;9.00;;;;;9.60;56.80;102079.00;4953957;28;45498;-90
2021/11/22 11:11:25;;;;;;;;;12.00;12.00;;;;;9.74;55.74;102076.47;4932193;28;45450;-90
2021/11/22 11:13:51;;;;;;;;;7.67;7.33;;;;;9.86;56.08;102081.66;4949970;28;45494;-91
2021/11/22 11:16:17;;;;;;;;;5.33;4.00;;;;;9.87;55.00;102080.84;4942954;28;46242;-89
2021/11/22 11:19:00;;;;;;;;;9.67;7.33;;;;;9.84;55.26;102074.56;4946065;28;45880;-90
2021/11/22 11:21:28;;;;;;;;;8.00;5.67;;;;;9.82;54.07;102068.31;4936258;28;45332;-90
2021/11/22 11:23:55;;;;;;;;;9.00;3.33;;;;;9.90;54.69;102081.97;4954081;28;45534;-90
2021/11/22 11:26:22;;;;;;;;;7.33;6.00;;;;;9.84;54.45;102069.31;4950807;28;45595;-90
2021/11/22 11:28:47;;;;;;;;;8.67;7.67;;;;;9.82;54.05;102072.63;4956346;28;46026;-89
2021/11/22 11:31:14;;;;;;;;;11.00;7.33;;;;;9.82;54.92;102073.56;4949804;28;45423;-90
2021/11/22 11:33:40;;;;;;;;;10.33;8.67;;;;;9.83;54.70;102066.59;4945425;28;45618;-90
2021/11/22 11:36:31;;;;;;;;;9.33;7.33;;;;;9.89;53.85;102067.03;4951483;28;47430;-89
2021/11/22 11:39:03;;;;;;;;;6.67;6.67;;;;;9.76;53.63;102060.03;4952002;28;45601;-90
2021/11/22 11:41:42;;;;;;;;;8.67;8.00;;;;;9.63;53.53;102081.84;4946867;28;47136;-88
2021/11/22 11:44:26;;;;;;;;;12.67;8.33;;;;;9.49;53.88;102075.63;4950318;28;45898;-90
2021/11/22 11:46:51;;;;;;;;;8.00;7.00;;;;;9.42;53.93;102066.41;4949900;28;46263;-91
2021/11/22 11:49:17;;;;;;;;;7.00;7.00;;;;;9.36;54.07;102068.59;4950531;28;45803;-88
2021/11/22 11:51:46;;;;;;;;;7.33;7.00;;;;;9.30;54.56;102069.09;4951836;28;46221;-91
2021/11/22 11:54:27;;;;;;;;;10.67;9.00;;;;;9.30;54.13;102068.16;4949409;28;45691;-89
2021/11/22 11:56:56;;;;;;;;;12.67;9.00;;;;;9.36;54.42;102069.50;4935884;28;52640;-91
2021/11/22 11:59:28;;;;;;;;;12.33;9.00;;;;;9.35;54.36;102061.53;4948970;28;45383;-88
2021/11/22 12:02:21;;;;;;;;;9.00;9.00;;;;;9.34;54.46;102062.31;4950614;28;45343;-88
2021/11/22 12:04:47;;;;;;;;;12.67;9.00;;;;;9.32;54.75;102070.09;4937357;28;46065;-87
2021/11/22 12:07:24;;;;;;;;;13.50;10.25;;;;;9.41;55.06;102068.91;4933877;28;47330;-88
2021/11/22 12:10:05;;;;;;;;;10.33;9.33;;;;;9.43;54.54;102059.47;4935214;28;45876;-87
2021/11/22 12:12:35;;;;;;;;;9.00;8.33;;;;;9.41;55.03;102066.28;4951278;28;45603;-88
2021/11/22 12:15:04;;;;;;;;;9.67;7.00;;;;;9.43;55.13;102065.59;4950898;28;45690;-89
2021/11/22 12:17:33;;;;;;;;;9.25;8.00;;;;;9.47;54.63;102077.22;4936437;28;47643;-88
2021/11/22 12:20:04;;;;;;;;;14.50;11.50;;;;;9.56;54.50;102062.13;4952333;28;45915;-86
2021/11/22 12:22:34;;;;;;;;;12.50;10.25;;;;;9.54;54.34;102074.22;4935192;28;45765;-88
2021/11/22 12:25:00;;;;;;;;;11.50;9.00;;;;;9.48;53.98;102058.09;4941512;28;45274;-87
2021/11/22 12:27:28;;;;;;;;;14.50;10.50;;;;;9.54;54.64;102074.22;4944139;28;48382;-89
2021/11/22 12:29:55;;;;;;;;;9.33;7.33;;;;;9.46;54.37;102063.19;4932788;28;45966;-88
2021/11/22 12:32:30;;;;;;;;;10.00;7.00;;;;;9.42;54.59;102076.91;4952291;28;45441;-88
2021/11/22 12:34:58;;;;;;;;;12.50;9.50;;;;;9.37;54.21;102068.72;4955711;28;45475;-88
2021/11/22 12:37:28;;;;;;;;;4.00;4.00;;;;;9.40;54.81;102073.25;4952479;28;46197;-87
2021/11/22 12:40:06;;;;;;;;;13.00;10.50;;;;;9.43;54.75;102078.69;4956084;28;45339;-86
2021/11/22 12:42:48;;;;;;;;;10.00;8.00;;;;;9.46;54.50;102062.28;4952168;28;45538;-87
2021/11/22 12:45:14;;;;;;;;;14.50;9.75;;;;;9.49;54.48;102070.38;4953037;28;45481;-88
2021/11/22 12:47:40;;;;;;;;;11.50;11.00;;;;;9.44;54.40;102061.28;4948496;28;48426;-87
2021/11/22 12:50:14;;;;;;;;;9.00;8.00;;;;;9.49;54.77;102075.63;4949557;28;45497;-88
2021/11/22 12:52:40;;;;;;;;;12.00;12.00;;;;;9.56;54.87;102074.38;4936007;28;45506;-88
2021/11/22 12:55:15;;;;;;;;;13.67;9.33;;;;;9.66;55.18;102063.72;4951403;28;46088;-87
2021/11/22 12:57:43;;;;;;;;;13.33;13.33;;;;;9.82;54.89;102065.69;4952050;28;45617;-88
2021/11/22 13:00:39;;;;;;;;;14.33;9.33;;;;;9.99;54.84;102072.91;4936034;28;45459;-87
2021/11/22 13:03:07;;;;;;;;;7.67;7.67;;;;;9.99;54.34;102072.91;4950935;28;45477;-88
2021/11/22 13:05:45;;;;;;;;;14.33;11.33;;;;;10.00;53.77;102064.25;4950069;28;45543;-88
2021/11/22 13:08:16;;;;;;;;;17.33;12.67;;;;;9.97;53.70;102077.16;4932264;28;47429;-88
2021/11/22 13:10:42;;;;;;;;;12.00;9.00;;;;;9.95;53.56;102071.78;4950632;28;45621;-88
2021/11/22 13:13:13;;;;;;;;;6.67;6.67;;;;;10.03;53.63;102081.09;4951406;28;45579;-88
2021/11/22 13:15:59;;;;;;;;;15.33;10.00;;;;;10.11;53.28;102078.09;4950045;28;45600;-88
2021/11/22 13:18:32;;;;;;;;;11.67;9.33;;;;;10.18;53.30;102075.09;4930402;28;46216;-89
2021/11/22 13:21:01;;;;;;;;;15.00;10.33;;;;;10.30;53.29;102072.41;4934423;28;45500;-89
2021/11/22 13:23:30;;;;;;;;;13.00;10.67;;;;;10.38;52.57;102068.59;4947504;28;45550;-89
2021/11/22 13:25:56;;;;;;;;;9.67;8.67;;;;;10.40;52.70;102071.31;4948732;28;45503;-88
2021/11/22 13:28:26;;;;;;;;;10.00;10.00;;;;;10.46;52.81;102081.31;4950546;28;45672;-87
2021/11/22 13:30:51;;;;;;;;;17.00;9.33;;;;;10.44;52.30;102086.44;4930572;28;46126;-87
2021/11/22 13:33:17;;;;;;;;;11.33;7.00;;;;;10.37;51.53;102076.34;4954423;28;45678;-87
2021/11/22 13:35:43;;;;;;;;;14.00;10.00;;;;;10.20;51.59;102085.69;4949365;28;45606;-87
2021/11/22 13:38:11;;;;;;;;;9.00;8.00;;;;;10.05;52.05;102078.59;4945300;28;46431;-87
2021/11/22 13:40:42;;;;;;;;;9.00;9.00;;;;;9.87;52.64;102081.75;4935558;28;45578;-87
2021/11/22 13:43:10;;;;;;;;;10.00;9.00;;;;;9.76;52.75;102085.34;4934190;28;45638;-88
2021/11/22 13:45:37;;;;;;;;;13.67;10.67;;;;;9.71;52.89;102090.25;4934274;28;45466;-87
2021/11/22 13:48:03;;;;;;;;;14.00;10.33;;;;;9.59;52.71;102096.44;4936415;28;46338;-87
2021/11/22 13:50:50;;;;;;;;;13.67;9.00;;;;;9.54;53.23;102082.09;4949937;28;45396;-87
2021/11/22 13:53:17;;;;;;;;;11.25;10.50;;;;;9.54;53.95;102091.66;4945846;28;45209;-88
2021/11/22 13:55:44;;;;;;;;;11.00;10.67;;;;;9.50;53.45;102088.84;4947184;28;45485;-87
2021/11/22 13:58:13;;;;;;;;;15.67;12.00;;;;;9.48;53.13;102086.91;4946885;28;46903;-87
2021/11/22 14:00:54;;;;;;;;;13.00;11.33;;;;;9.43;53.00;102104.91;4949835;28;45439;-87
2021/11/22 14:03:26;;;;;;;;;12.67;9.67;;;;;9.42;52.84;102108.34;4951091;28;45583;-86
2021/11/22 14:05:54;;;;;;;;;12.00;10.00;;;;;9.37;52.92;102101.88;4950696;28;45561;-87
2021/11/22 14:08:19;;;;;;;;;13.33;10.00;;;;;9.34;53.29;102104.25;4949589;28;46270;-87
2021/11/22 14:10:45;;;;;;;;;13.33;9.33;;;;;9.28;52.91;102103.00;4952351;28;45573;-87
2021/11/22 14:13:16;;;;;;;;;14.33;12.00;;;;;9.24;53.03;102100.97;4949981;28;45629;-88
2021/11/22 14:15:44;;;;;;;;;17.67;15.00;;;;;9.25;53.14;102109.75;4933962;28;45443;-88
2021/11/22 14:18:16;;;;;;;;;13.33;12.00;;;;;9.20;53.41;102106.78;4961274;28;45536;-87
2021/11/22 14:20:51;;;;;;;;;16.00;15.25;;;;;9.21;53.14;102116.47;4955526;28;45482;-87
2021/11/22 14:23:42;;;;;;;;;15.75;15.25;;;;;9.22;52.74;102120.00;4934819;28;45446;-87
2021/11/22 14:26:10;;;;;;;;;12.67;11.33;;;;;9.19;53.30;102114.53;4943548;28;46298;-87
2021/11/22 14:28:40;;;;;;;;;16.33;13.00;;;;;9.20;53.43;102113.75;4950041;28;45343;-87
2021/11/22 14:31:06;;;;;;;;;19.00;14.67;;;;;9.21;53.57;102119.09;4931252;28;45919;-87
2021/11/22 14:33:35;;;;;;;;;14.00;13.33;;;;;9.22;53.96;102126.16;4931819;28;45542;-87
2021/11/22 14:36:03;;;;;;;;;17.25;13.25;;;;;9.20;53.32;102112.00;4933990;28;45551;-88
2021/11/22 14:38:33;;;;;;;;;14.50;13.25;;;;;9.14;54.18;102119.44;4952909;28;47456;-87
2021/11/22 14:41:05;;;;;;;;;17.25;11.00;;;;;9.14;53.82;102127.31;4949017;28;45666;-88
2021/11/22 14:43:34;;;;;;;;;15.67;13.33;;;;;9.06;53.84;102126.72;4950874;28;45351;-87
2021/11/22 14:46:00;;;;;;;;;14.00;14.00;;;;;9.01;53.80;102121.16;4932373;28;45475;-88
2021/11/22 14:48:32;;;;;;;;;17.00;13.00;;;;;9.01;54.25;102130.72;4952650;28;45637;-87
2021/11/22 14:51:05;;;;;;;;;13.75;9.50;;;;;8.91;54.00;102126.50;4956327;28;45421;-87
2021/11/22 14:53:32;;;;;;;;;16.00;16.00;;;;;8.91;54.54;102131.75;4949638;28;45372;-88
2021/11/22 14:56:18;;;;;;;;;17.00;15.50;;;;;8.88;54.56;102132.44;4950839;28;45499;-87
2021/11/22 14:58:46;;;;;;;;;18.50;15.25;;;;;8.87;54.29;102132.28;4947904;28;45546;-88
2021/11/22 15:01:17;;;;;;;;;17.25;15.25;;;;;8.87;54.61;102137.53;4931755;28;45993;-87
2021/11/22 15:03:42;;;;;;;;;17.25;14.50;;;;;8.80;54.76;102129.22;4956213;28;45703;-87
2021/11/22 15:06:24;;;;;;;;;17.75;14.50;;;;;8.81;54.44;102136.28;4952125;28;45476;-86
2021/11/22 15:08:57;;;;;;;;;20.50;16.00;;;;;8.79;54.51;102136.94;4951408;28;46207;-87
2021/11/22 15:11:33;;;;;;;;;14.50;11.00;;;;;8.74;54.96;102133.06;4947362;28;45905;-87
2021/11/22 15:14:16;;;;;;;;;16.25;15.00;;;;;8.75;55.38;102137.53;4948582;28;45533;-89
2021/11/22 15:16:42;;;;;;;;;18.25;15.75;;;;;8.75;54.85;102148.00;4934262;28;45491;-90
2021/11/22 15:19:07;;;;;;;;;16.75;12.75;;;;;8.69;54.74;102146.75;4958464;28;45994;-91
2021/11/22 15:21:32;;;;;;;;;18.75;16.50;;;;;8.67;54.91;102155.28;4954559;28;47654;-88
2021/11/22 15:23:58;;;;;;;;;16.25;14.25;;;;;8.65;54.99;102157.78;4930634;28;45500;-88
2021/11/22 15:26:23;;;;;;;;;13.50;12.25;;;;;8.58;54.40;102150.22;4949177;28;47246;-89
2021/11/22 15:28:49;;;;;;;;;17.25;13.50;;;;;8.54;54.63;102149.06;4950234;28;45909;-88
2021/11/22 15:31:15;;;;;;;;;13.50;9.50;;;;;8.50;54.95;102158.38;4949684;28;45832;-90
2021/11/22 15:33:41;;;;;;;;;17.25;12.50;;;;;8.53;54.41;102168.19;4934248;28;45501;-88
2021/11/22 15:36:06;;;;;;;;;13.00;12.00;;;;;8.49;54.63;102168.75;4932671;28;45901;-89
2021/11/22 15:38:32;;;;;;;;;9.50;8.00;;;;;8.47;54.59;102180.81;4953708;28;45781;-87
2021/11/22 15:40:57;;;;;;;;;13.00;11.25;;;;;8.41;54.60;102176.00;4949488;28;45487;-91
2021/11/22 15:43:23;;;;;;;;;16.00;11.75;;;;;8.41;54.89;102178.63;4945472;28;45535;-91
2021/11/22 15:45:48;;;;;;;;;10.00;9.25;;;;;8.36;55.06;102175.66;4936389;28;46088;-88
2021/11/22 15:48:13;;;;;;;;;12.25;12.25;;;;;8.34;55.53;102178.94;4937562;28;48175;-88
2021/11/22 15:50:39;;;;;;;;;16.75;12.75;;;;;8.33;55.07;102180.63;4949702;28;49580;-88
2021/11/22 15:53:05;;;;;;;;;17.50;13.75;;;;;8.32;54.99;102196.22;4950918;28;46016;-88
2021/11/22 15:55:31;;;;;;;;;15.67;12.67;;;;;8.30;55.23;102187.34;4952400;28;45454;-88
2021/11/22 15:57:56;;;;;;;;;13.67;13.67;;;;;8.31;55.34;102202.25;4943053;28;48114;-88
2021/11/22 16:00:22;;;;;;;;;15.25;14.75;;;;;8.24;55.14;102198.25;4955706;28;45459;-89
2021/11/22 16:02:47;;;;;;;;;12.67;12.67;;;;;8.20;55.07;102199.69;4950496;28;45571;-88
2021/11/22 16:05:13;;;;;;;;;14.00;12.33;;;;;8.17;55.31;102204.69;4953022;28;45534;-89
2021/11/22 16:07:38;;;;;;;;;12.33;12.33;;;;;8.16;55.33;102203.78;4954531;28;45531;-88
2021/11/22 16:10:04;;;;;;;;;17.50;13.75;;;;;8.15;55.76;102206.28;4946026;28;45432;-89
2021/11/22 16:12:30;;;;;;;;;13.50;11.50;;;;;8.10;55.24;102205.00;4954725;28;45383;-88
2021/11/22 16:14:56;;;;;;;;;12.00;12.00;;;;;8.07;55.20;102199.50;4956830;28;45562;-89
2021/11/22 16:17:21;;;;;;;;;13.00;11.00;;;;;8.08;55.45;102209.19;4936118;28;47357;-89
2021/11/22 16:19:47;;;;;;;;;13.75;11.75;;;;;8.07;55.11;102223.03;4952368;28;45473;-88
2021/11/22 16:22:12;;;;;;;;;13.50;12.00;;;;;8.03;55.22;102217.59;4935975;28;45530;-89
2021/11/22 16:24:38;;;;;;;;;15.50;15.50;;;;;8.00;55.31;102217.34;4937246;28;45580;-89
2021/11/22 16:27:04;;;;;;;;;14.33;11.33;;;;;8.01;55.31;102221.81;4932542;28;47488;-88
2021/11/22 16:29:32;;;;;;;;;18.00;14.00;;;;;8.00;55.00;102227.81;4931806;28;47221;-88
2021/11/22 16:31:59;;;;;;;;;12.75;8.75;;;;;7.94;55.03;102216.84;4929805;28;45660;-88
2021/11/22 16:34:25;;;;;;;;;13.00;11.00;;;;;7.96;54.71;102228.38;4934604;28;45514;-89
2021/11/22 16:36:51;;;;;;;;;10.00;10.00;;;;;7.95;55.09;102229.13;4931874;28;47244;-90
2021/11/22 16:39:18;;;;;;;;;14.50;12.00;;;;;7.96;54.85;102235.28;4934787;28;45497;-90
2021/11/22 16:41:43;;;;;;;;;15.50;12.75;;;;;7.92;54.81;102221.97;4933703;28;46319;-89
2021/11/22 16:44:09;;;;;;;;;18.50;17.50;;;;;7.90;55.16;102228.78;4931083;28;45472;-90
2021/11/22 16:46:35;;;;;;;;;14.67;12.00;;;;;7.88;55.00;102226.81;4948306;28;47588;-89
2021/11/22 16:49:00;;;;;;;;;13.75;12.00;;;;;7.86;55.10;102229.31;4933143;28;45621;-90
2021/11/22 16:51:25;;;;;;;;;11.33;9.67;;;;;7.87;55.30;102244.22;4935543;28;45728;-88
2021/11/22 16:53:51;;;;;;;;;12.33;12.00;;;;;7.86;55.09;102239.75;4932489;28;45472;-88
2021/11/22 16:56:17;;;;;;;;;17.25;13.50;;;;;7.82;54.69;102235.09;4931835;28;46214;-88
2021/11/22 16:58:44;;;;;;;;;13.00;13.00;;;;;7.85;54.89;102253.63;4934189;28;45606;-89
2021/11/22 17:01:09;;;;;;;;;10.25;9.25;;;;;7.81;55.37;102259.38;4931084;28;45482;-89
2021/11/22 17:03:36;;;;;;;;;14.00;11.25;;;;;7.79;55.47;102254.03;4928611;28;45576;-90
2021/11/22 17:06:01;;;;;;;;;12.50;12.50;;;;;7.75;55.23;102258.91;4934390;28;45887;-89
2021/11/22 17:08:27;;;;;;;;;14.25;12.50;;;;;7.75;55.65;102256.28;4947665;28;45576;-92
2021/11/22 17:10:52;;;;;;;;;12.00;11.00;;;;;7.79;55.96;102263.59;4932515;28;45648;-90
2021/11/22 17:13:18;;;;;;;;;12.75;12.75;;;;;7.78;56.10;102264.38;4939634;28;45577;-93
2021/11/22 17:15:44;;;;;;;;;17.25;16.50;;;;;7.75;55.95;102267.66;4936435;28;45431;-89
2021/11/22 17:18:10;;;;;;;;;12.50;10.00;;;;;7.75;56.45;102277.22;4932580;28;45717;-89
2021/11/22 17:20:36;;;;;;;;;11.00;11.00;;;;;7.73;55.80;102274.44;4934596;28;45476;-88
2021/11/22 17:23:02;;;;;;;;;11.33;11.33;;;;;7.70;55.54;102282.97;4930930;28;45488;-89
2021/11/22 17:25:28;;;;;;;;;12.00;10.00;;;;;7.72;56.02;102288.31;4934386;28;48117;-88
2021/11/22 17:27:54;;;;;;;;;10.67;7.67;;;;;7.69;55.80;102285.44;4933486;28;45896;-89
2021/11/22 17:30:20;;;;;;;;;10.75;10.25;;;;;7.68;56.59;102287.16;4942646;28;45646;-87
2021/11/22 17:32:45;;;;;;;;;10.00;8.67;;;;;7.67;56.45;102297.47;4931409;28;45541;-88
2021/11/22 17:35:12;;;;;;;;;10.33;8.33;;;;;7.64;55.72;102286.78;4932913;28;47074;-87
2021/11/22 17:37:39;;;;;;;;;9.33;9.33;;;;;7.64;56.50;102299.84;4946729;28;45773;-87